sensor_id;sensor_type;location;lat;lon;timestamp;P1;durP1;ratioP1;P2;durP2;ratioP2
9767;SDS011;4923;52.520;13.494;2024-02-26T00:00:47;14.18;;;7.93;;
9767;SDS011;4923;52.520;13.494;2024-02-26T00:03:34;11.43;;;7.95;;
9767;SDS011;4923;52.520;13.494;2024-02-26T00:06:21;8.02;;;7.20;;
9767;SDS011;4923;52.520;13.494;2024-02-26T00:09:09;11.68;;;7.90;;
9767;SDS011;4923;52.520;13.494;2024-02-26T00:11:56;10.20;;;7.32;;
9767;SDS011;4923;52.520;13.494;2024-02-26T00:14:44;12.63;;;8.80;;
9767;SDS011;4923;52.520;13.494;2024-02-26T00:17:32;14.93;;;8.45;;
9767;SDS011;4923;52.520;13.494;2024-02-26T00:20:19;13.45;;;7.50;;
9767;SDS011;4923;52.520;13.494;2024-02-26T00:23:06;10.93;;;8.18;;
9767;SDS011;4923;52.520;13.494;2024-02-26T00:25:54;12.27;;;8.77;;
9767;SDS011;4923;52.520;13.494;2024-02-26T00:28:41;12.60;;;7.78;;
9767;SDS011;4923;52.520;13.494;2024-02-26T00:31:28;14.93;;;8.82;;
9767;SDS011;4923;52.520;13.494;2024-02-26T00:34:15;13.13;;;8.75;;
9767;SDS011;4923;52.520;13.494;2024-02-26T00:37:02;10.85;;;7.65;;
9767;SDS011;4923;52.520;13.494;2024-02-26T00:39:49;9.45;;;7.03;;
9767;SDS011;4923;52.520;13.494;2024-02-26T00:42:37;6.75;;;5.85;;
9767;SDS011;4923;52.520;13.494;2024-02-26T00:45:24;9.00;;;6.65;;
9767;SDS011;4923;52.520;13.494;2024-02-26T00:48:11;9.23;;;5.78;;
9767;SDS011;4923;52.520;13.494;2024-02-26T00:50:59;6.85;;;6.25;;
9767;SDS011;4923;52.520;13.494;2024-02-26T00:53:45;7.20;;;6.18;;
9767;SDS011;4923;52.520;13.494;2024-02-26T00:56:32;8.23;;;5.55;;
9767;SDS011;4923;52.520;13.494;2024-02-26T00:59:20;5.88;;;5.45;;
9767;SDS011;4923;52.520;13.494;2024-02-26T01:02:07;9.80;;;5.82;;
9767;SDS011;4923;52.520;13.494;2024-02-26T01:04:54;7.82;;;5.07;;
9767;SDS011;4923;52.520;13.494;2024-02-26T01:07:41;9.45;;;6.35;;
9767;SDS011;4923;52.520;13.494;2024-02-26T01:10:28;7.22;;;6.30;;
9767;SDS011;4923;52.520;13.494;2024-02-26T01:13:15;8.23;;;6.80;;
9767;SDS011;4923;52.520;13.494;2024-02-26T01:16:04;7.60;;;6.72;;
9767;SDS011;4923;52.520;13.494;2024-02-26T01:18:51;10.20;;;7.13;;
9767;SDS011;4923;52.520;13.494;2024-02-26T01:21:38;7.95;;;7.15;;
9767;SDS011;4923;52.520;13.494;2024-02-26T01:24:24;11.38;;;6.85;;
9767;SDS011;4923;52.520;13.494;2024-02-26T01:27:12;11.05;;;6.95;;
9767;SDS011;4923;52.520;13.494;2024-02-26T01:30:01;8.15;;;6.93;;
9767;SDS011;4923;52.520;13.494;2024-02-26T01:32:50;7.53;;;6.75;;
9767;SDS011;4923;52.520;13.494;2024-02-26T01:35:37;7.40;;;6.70;;
9767;SDS011;4923;52.520;13.494;2024-02-26T01:38:24;9.95;;;7.78;;
9767;SDS011;4923;52.520;13.494;2024-02-26T01:41:13;10.43;;;6.70;;
9767;SDS011;4923;52.520;13.494;2024-02-26T01:44:00;9.73;;;6.82;;
9767;SDS011;4923;52.520;13.494;2024-02-26T01:46:47;7.20;;;5.00;;
9767;SDS011;4923;52.520;13.494;2024-02-26T01:49:36;7.03;;;5.00;;
9767;SDS011;4923;52.520;13.494;2024-02-26T01:52:24;5.22;;;4.72;;
9767;SDS011;4923;52.520;13.494;2024-02-26T01:55:11;13.40;;;5.65;;
9767;SDS011;4923;52.520;13.494;2024-02-26T01:57:59;7.85;;;5.10;;
9767;SDS011;4923;52.520;13.494;2024-02-26T02:00:46;7.03;;;5.25;;
9767;SDS011;4923;52.520;13.494;2024-02-26T02:03:33;6.70;;;5.50;;
9767;SDS011;4923;52.520;13.494;2024-02-26T02:06:21;5.35;;;4.85;;
9767;SDS011;4923;52.520;13.494;2024-02-26T02:09:10;5.30;;;4.90;;
9767;SDS011;4923;52.520;13.494;2024-02-26T02:11:57;11.23;;;5.60;;
9767;SDS011;4923;52.520;13.494;2024-02-26T02:14:45;10.27;;;5.57;;
9767;SDS011;4923;52.520;13.494;2024-02-26T02:17:32;6.60;;;5.85;;
9767;SDS011;4923;52.520;13.494;2024-02-26T02:20:19;5.55;;;5.05;;
9767;SDS011;4923;52.520;13.494;2024-02-26T02:23:12;6.47;;;5.43;;
9767;SDS011;4923;52.520;13.494;2024-02-26T02:25:59;4.70;;;4.30;;
9767;SDS011;4923;52.520;13.494;2024-02-26T02:28:46;6.72;;;4.45;;
9767;SDS011;4923;52.520;13.494;2024-02-26T02:31:34;7.88;;;4.35;;
9767;SDS011;4923;52.520;13.494;2024-02-26T02:34:21;4.57;;;4.28;;
9767;SDS011;4923;52.520;13.494;2024-02-26T02:37:09;4.90;;;4.20;;
9767;SDS011;4923;52.520;13.494;2024-02-26T02:39:56;4.72;;;4.25;;
9767;SDS011;4923;52.520;13.494;2024-02-26T02:42:44;4.47;;;3.97;;
9767;SDS011;4923;52.520;13.494;2024-02-26T02:45:31;4.80;;;3.88;;
9767;SDS011;4923;52.520;13.494;2024-02-26T02:48:18;7.28;;;4.05;;
9767;SDS011;4923;52.520;13.494;2024-02-26T02:51:05;5.85;;;3.95;;
9767;SDS011;4923;52.520;13.494;2024-02-26T02:53:53;4.38;;;3.50;;
9767;SDS011;4923;52.520;13.494;2024-02-26T02:56:40;4.25;;;3.95;;
9767;SDS011;4923;52.520;13.494;2024-02-26T02:59:27;4.22;;;4.00;;
9767;SDS011;4923;52.520;13.494;2024-02-26T03:02:13;3.63;;;3.40;;
9767;SDS011;4923;52.520;13.494;2024-02-26T03:05:00;5.85;;;4.05;;
9767;SDS011;4923;52.520;13.494;2024-02-26T03:07:47;4.18;;;3.83;;
9767;SDS011;4923;52.520;13.494;2024-02-26T03:10:35;3.92;;;3.60;;
9767;SDS011;4923;52.520;13.494;2024-02-26T03:13:22;13.57;;;4.43;;
9767;SDS011;4923;52.520;13.494;2024-02-26T03:16:09;5.35;;;4.35;;
9767;SDS011;4923;52.520;13.494;2024-02-26T03:18:56;4.85;;;3.72;;
9767;SDS011;4923;52.520;13.494;2024-02-26T03:21:43;5.93;;;4.47;;
9767;SDS011;4923;52.520;13.494;2024-02-26T03:24:30;4.38;;;4.10;;
9767;SDS011;4923;52.520;13.494;2024-02-26T03:27:18;4.55;;;4.18;;
9767;SDS011;4923;52.520;13.494;2024-02-26T03:30:05;5.22;;;4.40;;
9767;SDS011;4923;52.520;13.494;2024-02-26T03:32:53;6.63;;;4.60;;
9767;SDS011;4923;52.520;13.494;2024-02-26T03:35:40;4.95;;;3.90;;
9767;SDS011;4923;52.520;13.494;2024-02-26T03:38:27;4.43;;;4.03;;
9767;SDS011;4923;52.520;13.494;2024-02-26T03:41:14;5.57;;;4.32;;
9767;SDS011;4923;52.520;13.494;2024-02-26T03:44:02;4.60;;;4.20;;
9767;SDS011;4923;52.520;13.494;2024-02-26T03:46:50;8.23;;;4.72;;
9767;SDS011;4923;52.520;13.494;2024-02-26T03:49:36;5.40;;;4.55;;
9767;SDS011;4923;52.520;13.494;2024-02-26T03:52:23;4.47;;;4.07;;
9767;SDS011;4923;52.520;13.494;2024-02-26T03:55:10;5.35;;;4.90;;
9767;SDS011;4923;52.520;13.494;2024-02-26T03:57:57;5.60;;;5.10;;
9767;SDS011;4923;52.520;13.494;2024-02-26T04:00:46;9.93;;;5.28;;
9767;SDS011;4923;52.520;13.494;2024-02-26T04:03:33;5.13;;;4.72;;
9767;SDS011;4923;52.520;13.494;2024-02-26T04:06:20;10.23;;;5.70;;
9767;SDS011;4923;52.520;13.494;2024-02-26T04:09:08;6.13;;;5.53;;
9767;SDS011;4923;52.520;13.494;2024-02-26T04:11:55;8.73;;;5.80;;
9767;SDS011;4923;52.520;13.494;2024-02-26T04:14:42;7.32;;;5.40;;
9767;SDS011;4923;52.520;13.494;2024-02-26T04:17:31;7.10;;;6.18;;
9767;SDS011;4923;52.520;13.494;2024-02-26T04:20:18;11.55;;;6.55;;
9767;SDS011;4923;52.520;13.494;2024-02-26T04:23:04;9.63;;;7.35;;
9767;SDS011;4923;52.520;13.494;2024-02-26T04:25:51;8.00;;;7.13;;
9767;SDS011;4923;52.520;13.494;2024-02-26T04:28:39;7.60;;;6.82;;
9767;SDS011;4923;52.520;13.494;2024-02-26T04:31:26;8.30;;;6.13;;
9767;SDS011;4923;52.520;13.494;2024-02-26T04:34:14;7.28;;;6.07;;
9767;SDS011;4923;52.520;13.494;2024-02-26T04:37:01;16.63;;;6.65;;
9767;SDS011;4923;52.520;13.494;2024-02-26T04:39:48;8.60;;;6.53;;
9767;SDS011;4923;52.520;13.494;2024-02-26T04:42:35;9.80;;;6.95;;
9767;SDS011;4923;52.520;13.494;2024-02-26T04:45:22;9.25;;;7.18;;
9767;SDS011;4923;52.520;13.494;2024-02-26T04:48:09;7.30;;;6.30;;
9767;SDS011;4923;52.520;13.494;2024-02-26T04:50:57;10.98;;;7.55;;
9767;SDS011;4923;52.520;13.494;2024-02-26T04:53:44;9.40;;;6.95;;
9767;SDS011;4923;52.520;13.494;2024-02-26T04:56:31;13.00;;;8.15;;
9767;SDS011;4923;52.520;13.494;2024-02-26T04:59:17;12.98;;;7.22;;
9767;SDS011;4923;52.520;13.494;2024-02-26T05:02:04;13.27;;;9.10;;
9767;SDS011;4923;52.520;13.494;2024-02-26T05:04:51;13.68;;;8.85;;
9767;SDS011;4923;52.520;13.494;2024-02-26T05:07:42;13.50;;;9.02;;
9767;SDS011;4923;52.520;13.494;2024-02-26T05:10:29;10.38;;;7.93;;
9767;SDS011;4923;52.520;13.494;2024-02-26T05:13:16;11.98;;;7.40;;
9767;SDS011;4923;52.520;13.494;2024-02-26T05:16:03;15.48;;;8.35;;
9767;SDS011;4923;52.520;13.494;2024-02-26T05:18:50;12.70;;;7.85;;
9767;SDS011;4923;52.520;13.494;2024-02-26T05:21:37;13.70;;;8.38;;
9767;SDS011;4923;52.520;13.494;2024-02-26T05:24:26;14.25;;;8.73;;
9767;SDS011;4923;52.520;13.494;2024-02-26T05:27:13;13.75;;;9.07;;
9767;SDS011;4923;52.520;13.494;2024-02-26T05:30:00;9.85;;;8.30;;
9767;SDS011;4923;52.520;13.494;2024-02-26T05:32:47;12.77;;;9.52;;
9767;SDS011;4923;52.520;13.494;2024-02-26T05:35:34;11.55;;;8.43;;
9767;SDS011;4923;52.520;13.494;2024-02-26T05:38:20;13.25;;;8.40;;
9767;SDS011;4923;52.520;13.494;2024-02-26T05:41:09;13.73;;;9.02;;
9767;SDS011;4923;52.520;13.494;2024-02-26T05:43:55;14.57;;;8.40;;
9767;SDS011;4923;52.520;13.494;2024-02-26T05:46:42;17.10;;;9.40;;
9767;SDS011;4923;52.520;13.494;2024-02-26T05:49:29;15.43;;;9.75;;
9767;SDS011;4923;52.520;13.494;2024-02-26T05:52:17;14.85;;;10.30;;
9767;SDS011;4923;52.520;13.494;2024-02-26T05:55:05;12.32;;;8.82;;
9767;SDS011;4923;52.520;13.494;2024-02-26T05:57:53;13.63;;;9.32;;
9767;SDS011;4923;52.520;13.494;2024-02-26T06:00:40;15.68;;;10.00;;
9767;SDS011;4923;52.520;13.494;2024-02-26T06:03:27;18.50;;;11.07;;
9767;SDS011;4923;52.520;13.494;2024-02-26T06:06:14;18.33;;;11.45;;
9767;SDS011;4923;52.520;13.494;2024-02-26T06:09:01;17.67;;;11.18;;
9767;SDS011;4923;52.520;13.494;2024-02-26T06:11:50;22.90;;;10.25;;
9767;SDS011;4923;52.520;13.494;2024-02-26T06:14:39;19.38;;;10.15;;
9767;SDS011;4923;52.520;13.494;2024-02-26T06:17:25;19.20;;;11.70;;
9767;SDS011;4923;52.520;13.494;2024-02-26T06:20:13;21.73;;;10.80;;
9767;SDS011;4923;52.520;13.494;2024-02-26T06:23:00;19.42;;;11.55;;
9767;SDS011;4923;52.520;13.494;2024-02-26T06:25:47;16.83;;;11.55;;
9767;SDS011;4923;52.520;13.494;2024-02-26T06:28:34;16.10;;;12.18;;
9767;SDS011;4923;52.520;13.494;2024-02-26T06:31:23;20.60;;;12.85;;
9767;SDS011;4923;52.520;13.494;2024-02-26T06:34:12;19.75;;;12.75;;
9767;SDS011;4923;52.520;13.494;2024-02-26T06:36:59;17.27;;;12.40;;
9767;SDS011;4923;52.520;13.494;2024-02-26T06:39:46;19.88;;;12.75;;
9767;SDS011;4923;52.520;13.494;2024-02-26T06:42:33;24.02;;;13.18;;
9767;SDS011;4923;52.520;13.494;2024-02-26T06:45:20;20.00;;;12.48;;
9767;SDS011;4923;52.520;13.494;2024-02-26T06:48:08;21.98;;;13.43;;
9767;SDS011;4923;52.520;13.494;2024-02-26T06:50:55;22.40;;;13.60;;
9767;SDS011;4923;52.520;13.494;2024-02-26T06:53:42;26.25;;;13.70;;
9767;SDS011;4923;52.520;13.494;2024-02-26T06:56:29;21.67;;;13.48;;
9767;SDS011;4923;52.520;13.494;2024-02-26T06:59:15;23.30;;;12.00;;
9767;SDS011;4923;52.520;13.494;2024-02-26T07:02:02;16.30;;;11.35;;
9767;SDS011;4923;52.520;13.494;2024-02-26T07:04:51;14.55;;;11.63;;
9767;SDS011;4923;52.520;13.494;2024-02-26T07:07:37;16.58;;;11.05;;
9767;SDS011;4923;52.520;13.494;2024-02-26T07:10:25;18.25;;;11.82;;
9767;SDS011;4923;52.520;13.494;2024-02-26T07:13:12;14.00;;;10.15;;
9767;SDS011;4923;52.520;13.494;2024-02-26T07:15:59;15.80;;;11.13;;
9767;SDS011;4923;52.520;13.494;2024-02-26T07:18:46;18.52;;;11.35;;
9767;SDS011;4923;52.520;13.494;2024-02-26T07:21:34;12.85;;;10.95;;
9767;SDS011;4923;52.520;13.494;2024-02-26T07:24:21;16.88;;;11.07;;
9767;SDS011;4923;52.520;13.494;2024-02-26T07:27:08;17.67;;;12.10;;
9767;SDS011;4923;52.520;13.494;2024-02-26T07:29:55;13.57;;;10.43;;
9767;SDS011;4923;52.520;13.494;2024-02-26T07:32:42;12.93;;;10.55;;
9767;SDS011;4923;52.520;13.494;2024-02-26T07:35:29;13.20;;;10.52;;
9767;SDS011;4923;52.520;13.494;2024-02-26T07:38:20;12.45;;;9.52;;
9767;SDS011;4923;52.520;13.494;2024-02-26T07:41:07;13.70;;;9.75;;
9767;SDS011;4923;52.520;13.494;2024-02-26T07:43:54;16.23;;;10.30;;
9767;SDS011;4923;52.520;13.494;2024-02-26T07:46:41;14.27;;;9.95;;
9767;SDS011;4923;52.520;13.494;2024-02-26T07:49:28;15.55;;;10.05;;
9767;SDS011;4923;52.520;13.494;2024-02-26T07:52:15;16.30;;;10.48;;
9767;SDS011;4923;52.520;13.494;2024-02-26T07:55:03;14.00;;;10.75;;
9767;SDS011;4923;52.520;13.494;2024-02-26T07:57:51;11.82;;;10.20;;
9767;SDS011;4923;52.520;13.494;2024-02-26T08:00:37;16.25;;;11.30;;
9767;SDS011;4923;52.520;13.494;2024-02-26T08:03:24;16.40;;;10.45;;
9767;SDS011;4923;52.520;13.494;2024-02-26T08:06:11;13.18;;;9.15;;
9767;SDS011;4923;52.520;13.494;2024-02-26T08:08:58;14.70;;;10.95;;
9767;SDS011;4923;52.520;13.494;2024-02-26T08:11:46;12.25;;;10.35;;
9767;SDS011;4923;52.520;13.494;2024-02-26T08:14:33;14.75;;;10.40;;
9767;SDS011;4923;52.520;13.494;2024-02-26T08:17:20;21.05;;;10.55;;
9767;SDS011;4923;52.520;13.494;2024-02-26T08:20:07;19.88;;;11.10;;
9767;SDS011;4923;52.520;13.494;2024-02-26T08:22:54;15.30;;;10.18;;
9767;SDS011;4923;52.520;13.494;2024-02-26T08:25:41;17.42;;;10.27;;
9767;SDS011;4923;52.520;13.494;2024-02-26T08:28:30;12.35;;;10.32;;
9767;SDS011;4923;52.520;13.494;2024-02-26T08:31:16;13.15;;;10.13;;
9767;SDS011;4923;52.520;13.494;2024-02-26T08:34:03;11.18;;;9.35;;
9767;SDS011;4923;52.520;13.494;2024-02-26T08:36:50;11.35;;;8.68;;
9767;SDS011;4923;52.520;13.494;2024-02-26T08:39:37;11.98;;;9.43;;
9767;SDS011;4923;52.520;13.494;2024-02-26T08:42:24;17.25;;;8.82;;
9767;SDS011;4923;52.520;13.494;2024-02-26T08:45:13;13.07;;;8.52;;
9767;SDS011;4923;52.520;13.494;2024-02-26T08:48:00;9.27;;;7.97;;
9767;SDS011;4923;52.520;13.494;2024-02-26T08:50:47;11.73;;;8.85;;
9767;SDS011;4923;52.520;13.494;2024-02-26T08:53:34;14.57;;;10.02;;
9767;SDS011;4923;52.520;13.494;2024-02-26T08:56:21;14.82;;;8.63;;
9767;SDS011;4923;52.520;13.494;2024-02-26T08:59:08;13.07;;;8.48;;
9767;SDS011;4923;52.520;13.494;2024-02-26T09:01:57;13.73;;;8.85;;
9767;SDS011;4923;52.520;13.494;2024-02-26T09:04:43;9.65;;;8.63;;
9767;SDS011;4923;52.520;13.494;2024-02-26T09:07:30;9.23;;;8.18;;
9767;SDS011;4923;52.520;13.494;2024-02-26T09:10:17;14.02;;;9.07;;
9767;SDS011;4923;52.520;13.494;2024-02-26T09:13:04;11.10;;;8.85;;
9767;SDS011;4923;52.520;13.494;2024-02-26T09:15:51;11.75;;;7.78;;
9767;SDS011;4923;52.520;13.494;2024-02-26T09:18:39;12.75;;;8.77;;
9767;SDS011;4923;52.520;13.494;2024-02-26T09:21:26;11.95;;;7.95;;
9767;SDS011;4923;52.520;13.494;2024-02-26T09:24:13;10.90;;;7.88;;
9767;SDS011;4923;52.520;13.494;2024-02-26T09:27:00;13.27;;;9.00;;
9767;SDS011;4923;52.520;13.494;2024-02-26T09:29:47;9.05;;;7.30;;
9767;SDS011;4923;52.520;13.494;2024-02-26T09:32:33;10.75;;;8.38;;
9767;SDS011;4923;52.520;13.494;2024-02-26T09:35:22;10.50;;;8.73;;
9767;SDS011;4923;52.520;13.494;2024-02-26T09:38:09;8.63;;;7.60;;
9767;SDS011;4923;52.520;13.494;2024-02-26T09:40:56;19.83;;;8.50;;
9767;SDS011;4923;52.520;13.494;2024-02-26T09:43:44;14.15;;;7.70;;
9767;SDS011;4923;52.520;13.494;2024-02-26T09:46:32;9.68;;;7.10;;
9767;SDS011;4923;52.520;13.494;2024-02-26T09:49:20;10.85;;;7.10;;
9767;SDS011;4923;52.520;13.494;2024-02-26T09:52:11;9.90;;;8.23;;
9767;SDS011;4923;52.520;13.494;2024-02-26T09:54:58;23.70;;;7.78;;
9767;SDS011;4923;52.520;13.494;2024-02-26T09:57:46;10.48;;;7.70;;
9767;SDS011;4923;52.520;13.494;2024-02-26T10:00:36;12.82;;;6.82;;
9767;SDS011;4923;52.520;13.494;2024-02-26T10:03:25;11.25;;;7.53;;
9767;SDS011;4923;52.520;13.494;2024-02-26T10:06:14;10.57;;;8.27;;
9767;SDS011;4923;52.520;13.494;2024-02-26T10:09:03;7.50;;;6.75;;
9767;SDS011;4923;52.520;13.494;2024-02-26T10:11:52;11.48;;;7.63;;
9767;SDS011;4923;52.520;13.494;2024-02-26T10:14:39;8.27;;;6.22;;
9767;SDS011;4923;52.520;13.494;2024-02-26T10:17:26;8.40;;;7.28;;
9767;SDS011;4923;52.520;13.494;2024-02-26T10:20:13;11.02;;;7.10;;
9767;SDS011;4923;52.520;13.494;2024-02-26T10:23:03;11.35;;;7.57;;
9767;SDS011;4923;52.520;13.494;2024-02-26T10:25:53;7.25;;;6.25;;
9767;SDS011;4923;52.520;13.494;2024-02-26T10:28:41;9.45;;;6.75;;
9767;SDS011;4923;52.520;13.494;2024-02-26T10:31:29;7.80;;;5.82;;
9767;SDS011;4923;52.520;13.494;2024-02-26T10:34:16;7.70;;;6.57;;
9767;SDS011;4923;52.520;13.494;2024-02-26T10:37:03;10.40;;;6.90;;
9767;SDS011;4923;52.520;13.494;2024-02-26T10:39:51;6.47;;;5.32;;
9767;SDS011;4923;52.520;13.494;2024-02-26T10:42:39;7.00;;;6.30;;
9767;SDS011;4923;52.520;13.494;2024-02-26T10:45:26;9.25;;;7.00;;
9767;SDS011;4923;52.520;13.494;2024-02-26T10:48:14;8.25;;;6.30;;
9767;SDS011;4923;52.520;13.494;2024-02-26T10:51:02;6.88;;;5.70;;
9767;SDS011;4923;52.520;13.494;2024-02-26T10:53:50;7.72;;;5.78;;
9767;SDS011;4923;52.520;13.494;2024-02-26T10:56:42;6.38;;;5.40;;
9767;SDS011;4923;52.520;13.494;2024-02-26T10:59:30;6.50;;;5.30;;
9767;SDS011;4923;52.520;13.494;2024-02-26T11:02:20;4.72;;;4.32;;
9767;SDS011;4923;52.520;13.494;2024-02-26T11:05:07;5.57;;;5.05;;
9767;SDS011;4923;52.520;13.494;2024-02-26T11:07:55;4.60;;;4.18;;
9767;SDS011;4923;52.520;13.494;2024-02-26T11:10:42;6.63;;;4.40;;
9767;SDS011;4923;52.520;13.494;2024-02-26T11:13:30;4.90;;;4.30;;
9767;SDS011;4923;52.520;13.494;2024-02-26T11:16:20;4.80;;;4.30;;
9767;SDS011;4923;52.520;13.494;2024-02-26T11:19:08;6.72;;;5.63;;
9767;SDS011;4923;52.520;13.494;2024-02-26T11:21:56;5.63;;;4.93;;
9767;SDS011;4923;52.520;13.494;2024-02-26T11:24:43;4.63;;;4.30;;
9767;SDS011;4923;52.520;13.494;2024-02-26T11:27:30;8.05;;;5.25;;
9767;SDS011;4923;52.520;13.494;2024-02-26T11:30:21;6.82;;;3.75;;
9767;SDS011;4923;52.520;13.494;2024-02-26T11:33:11;6.00;;;4.30;;
9767;SDS011;4923;52.520;13.494;2024-02-26T11:35:58;7.37;;;4.37;;
9767;SDS011;4923;52.520;13.494;2024-02-26T11:38:45;5.78;;;5.10;;
9767;SDS011;4923;52.520;13.494;2024-02-26T11:41:36;6.00;;;5.43;;
9767;SDS011;4923;52.520;13.494;2024-02-26T11:44:30;5.63;;;5.10;;
9767;SDS011;4923;52.520;13.494;2024-02-26T11:47:18;9.38;;;6.10;;
9767;SDS011;4923;52.520;13.494;2024-02-26T11:53:23;5.85;;;5.28;;
9767;SDS011;4923;52.520;13.494;2024-02-26T11:56:23;8.43;;;5.23;;
9767;SDS011;4923;52.520;13.494;2024-02-26T11:59:12;6.63;;;5.27;;
9767;SDS011;4923;52.520;13.494;2024-02-26T12:02:43;7.90;;;5.97;;
9767;SDS011;4923;52.520;13.494;2024-02-26T12:05:32;14.63;;;6.80;;
9767;SDS011;4923;52.520;13.494;2024-02-26T12:08:21;7.80;;;6.20;;
9767;SDS011;4923;52.520;13.494;2024-02-26T12:11:14;5.80;;;5.20;;
9767;SDS011;4923;52.520;13.494;2024-02-26T12:14:01;9.10;;;4.93;;
9767;SDS011;4923;52.520;13.494;2024-02-26T12:16:48;11.33;;;6.77;;
9767;SDS011;4923;52.520;13.494;2024-02-26T12:19:37;11.83;;;6.97;;
9767;SDS011;4923;52.520;13.494;2024-02-26T12:22:24;15.13;;;6.60;;
9767;SDS011;4923;52.520;13.494;2024-02-26T12:25:13;8.73;;;6.47;;
9767;SDS011;4923;52.520;13.494;2024-02-26T12:28:00;9.93;;;7.30;;
9767;SDS011;4923;52.520;13.494;2024-02-26T12:30:48;8.53;;;6.60;;
9767;SDS011;4923;52.520;13.494;2024-02-26T12:33:35;7.37;;;6.63;;
9767;SDS011;4923;52.520;13.494;2024-02-26T12:36:22;9.67;;;7.93;;
9767;SDS011;4923;52.520;13.494;2024-02-26T12:39:09;10.47;;;7.47;;
9767;SDS011;4923;52.520;13.494;2024-02-26T12:41:57;8.40;;;6.70;;
9767;SDS011;4923;52.520;13.494;2024-02-26T12:44:45;6.23;;;5.60;;
9767;SDS011;4923;52.520;13.494;2024-02-26T12:47:32;6.50;;;5.27;;
9767;SDS011;4923;52.520;13.494;2024-02-26T12:50:19;6.90;;;5.30;;
9767;SDS011;4923;52.520;13.494;2024-02-26T12:53:06;7.60;;;5.77;;
9767;SDS011;4923;52.520;13.494;2024-02-26T12:55:53;9.23;;;5.60;;
9767;SDS011;4923;52.520;13.494;2024-02-26T12:58:42;5.40;;;4.90;;
9767;SDS011;4923;52.520;13.494;2024-02-26T13:01:29;5.53;;;5.00;;
9767;SDS011;4923;52.520;13.494;2024-02-26T13:04:16;5.10;;;4.70;;
9767;SDS011;4923;52.520;13.494;2024-02-26T13:07:04;7.90;;;4.97;;
9767;SDS011;4923;52.520;13.494;2024-02-26T13:09:51;10.80;;;4.60;;
9767;SDS011;4923;52.520;13.494;2024-02-26T13:12:41;7.77;;;4.73;;
9767;SDS011;4923;52.520;13.494;2024-02-26T13:15:31;5.93;;;4.03;;
9767;SDS011;4923;52.520;13.494;2024-02-26T13:18:18;11.23;;;3.43;;
9767;SDS011;4923;52.520;13.494;2024-02-26T13:21:08;5.67;;;3.77;;
9767;SDS011;4923;52.520;13.494;2024-02-26T13:23:56;3.77;;;3.47;;
9767;SDS011;4923;52.520;13.494;2024-02-26T13:26:43;4.80;;;3.80;;
9767;SDS011;4923;52.520;13.494;2024-02-26T13:29:30;4.63;;;4.23;;
9767;SDS011;4923;52.520;13.494;2024-02-26T13:32:18;4.60;;;3.50;;
9767;SDS011;4923;52.520;13.494;2024-02-26T13:35:07;5.53;;;3.83;;
9767;SDS011;4923;52.520;13.494;2024-02-26T13:37:56;3.57;;;3.27;;
9767;SDS011;4923;52.520;13.494;2024-02-26T13:40:43;4.00;;;3.70;;
9767;SDS011;4923;52.520;13.494;2024-02-26T13:43:30;3.80;;;3.20;;
9767;SDS011;4923;52.520;13.494;2024-02-26T13:46:16;3.13;;;2.93;;
9767;SDS011;4923;52.520;13.494;2024-02-26T13:49:05;3.40;;;3.20;;
9767;SDS011;4923;52.520;13.494;2024-02-26T13:51:55;3.67;;;3.37;;
9767;SDS011;4923;52.520;13.494;2024-02-26T13:54:42;4.03;;;3.67;;
9767;SDS011;4923;52.520;13.494;2024-02-26T13:57:29;4.93;;;4.07;;
9767;SDS011;4923;52.520;13.494;2024-02-26T14:00:16;13.43;;;4.40;;
9767;SDS011;4923;52.520;13.494;2024-02-26T14:03:04;2.87;;;2.60;;
9767;SDS011;4923;52.520;13.494;2024-02-26T14:05:52;4.03;;;3.00;;
9767;SDS011;4923;52.520;13.494;2024-02-26T14:08:40;4.50;;;3.80;;
9767;SDS011;4923;52.520;13.494;2024-02-26T14:11:26;4.43;;;4.13;;
9767;SDS011;4923;52.520;13.494;2024-02-26T14:14:14;4.10;;;2.97;;
9767;SDS011;4923;52.520;13.494;2024-02-26T14:17:01;14.33;;;3.00;;
9767;SDS011;4923;52.520;13.494;2024-02-26T14:19:48;4.28;;;3.15;;
9767;SDS011;4923;52.520;13.494;2024-02-26T14:22:37;4.80;;;3.03;;
9767;SDS011;4923;52.520;13.494;2024-02-26T14:25:23;6.27;;;4.30;;
9767;SDS011;4923;52.520;13.494;2024-02-26T14:28:10;6.72;;;3.90;;
9767;SDS011;4923;52.520;13.494;2024-02-26T14:30:57;4.45;;;4.05;;
9767;SDS011;4923;52.520;13.494;2024-02-26T14:33:44;6.87;;;3.50;;
9767;SDS011;4923;52.520;13.494;2024-02-26T14:36:31;7.60;;;4.00;;
9767;SDS011;4923;52.520;13.494;2024-02-26T14:39:19;5.30;;;3.37;;
9767;SDS011;4923;52.520;13.494;2024-02-26T14:42:06;4.10;;;3.85;;
9767;SDS011;4923;52.520;13.494;2024-02-26T14:44:53;6.72;;;5.07;;
9767;SDS011;4923;52.520;13.494;2024-02-26T14:47:40;8.10;;;4.80;;
9767;SDS011;4923;52.520;13.494;2024-02-26T14:50:26;4.18;;;3.72;;
9767;SDS011;4923;52.520;13.494;2024-02-26T14:53:14;4.63;;;4.22;;
9767;SDS011;4923;52.520;13.494;2024-02-26T14:56:03;7.63;;;4.65;;
9767;SDS011;4923;52.520;13.494;2024-02-26T14:58:50;5.10;;;4.25;;
9767;SDS011;4923;52.520;13.494;2024-02-26T15:01:37;5.20;;;4.07;;
9767;SDS011;4923;52.520;13.494;2024-02-26T15:04:23;4.82;;;4.40;;
9767;SDS011;4923;52.520;13.494;2024-02-26T15:07:10;3.92;;;3.75;;
9767;SDS011;4923;52.520;13.494;2024-02-26T15:09:57;4.28;;;3.97;;
9767;SDS011;4923;52.520;13.494;2024-02-26T15:12:47;4.45;;;3.72;;
9767;SDS011;4923;52.520;13.494;2024-02-26T15:15:34;4.10;;;3.80;;
9767;SDS011;4923;52.520;13.494;2024-02-26T15:18:22;7.28;;;3.85;;
9767;SDS011;4923;52.520;13.494;2024-02-26T15:21:09;4.55;;;4.10;;
9767;SDS011;4923;52.520;13.494;2024-02-26T15:23:57;4.75;;;4.35;;
9767;SDS011;4923;52.520;13.494;2024-02-26T15:26:44;4.78;;;4.15;;
9767;SDS011;4923;52.520;13.494;2024-02-26T15:29:33;5.22;;;4.70;;
9767;SDS011;4923;52.520;13.494;2024-02-26T15:32:21;4.40;;;4.10;;
9767;SDS011;4923;52.520;13.494;2024-02-26T15:35:10;5.90;;;4.75;;
9767;SDS011;4923;52.520;13.494;2024-02-26T15:37:57;7.55;;;4.90;;
9767;SDS011;4923;52.520;13.494;2024-02-26T15:40:44;16.85;;;5.10;;
9767;SDS011;4923;52.520;13.494;2024-02-26T15:43:32;6.47;;;5.40;;
9767;SDS011;4923;52.520;13.494;2024-02-26T15:46:20;18.67;;;5.50;;
9767;SDS011;4923;52.520;13.494;2024-02-26T15:49:07;6.28;;;5.07;;
9767;SDS011;4923;52.520;13.494;2024-02-26T15:51:54;6.15;;;5.57;;
9767;SDS011;4923;52.520;13.494;2024-02-26T15:54:41;7.10;;;5.50;;
9767;SDS011;4923;52.520;13.494;2024-02-26T15:57:28;7.18;;;6.28;;
9767;SDS011;4923;52.520;13.494;2024-02-26T16:00:15;6.78;;;6.13;;
9767;SDS011;4923;52.520;13.494;2024-02-26T16:03:04;6.80;;;6.13;;
9767;SDS011;4923;52.520;13.494;2024-02-26T16:05:51;12.30;;;6.85;;
9767;SDS011;4923;52.520;13.494;2024-02-26T16:08:38;9.98;;;6.63;;
9767;SDS011;4923;52.520;13.494;2024-02-26T16:11:25;6.70;;;6.10;;
9767;SDS011;4923;52.520;13.494;2024-02-26T16:14:15;8.55;;;6.97;;
9767;SDS011;4923;52.520;13.494;2024-02-26T16:17:09;7.18;;;6.13;;
9767;SDS011;4923;52.520;13.494;2024-02-26T16:20:02;10.48;;;7.05;;
9767;SDS011;4923;52.520;13.494;2024-02-26T16:22:50;10.93;;;8.20;;
9767;SDS011;4923;52.520;13.494;2024-02-26T16:25:37;9.88;;;7.95;;
9767;SDS011;4923;52.520;13.494;2024-02-26T16:28:24;10.32;;;7.97;;
9767;SDS011;4923;52.520;13.494;2024-02-26T16:31:11;10.15;;;6.93;;
9767;SDS011;4923;52.520;13.494;2024-02-26T16:33:58;8.02;;;6.22;;
9767;SDS011;4923;52.520;13.494;2024-02-26T16:36:47;11.30;;;7.78;;
9767;SDS011;4923;52.520;13.494;2024-02-26T16:39:35;8.85;;;7.10;;
9767;SDS011;4923;52.520;13.494;2024-02-26T16:42:23;12.55;;;8.30;;
9767;SDS011;4923;52.520;13.494;2024-02-26T16:45:09;11.95;;;6.65;;
9767;SDS011;4923;52.520;13.494;2024-02-26T16:47:58;17.55;;;7.93;;
9767;SDS011;4923;52.520;13.494;2024-02-26T16:50:44;13.25;;;8.50;;
9767;SDS011;4923;52.520;13.494;2024-02-26T16:53:33;8.32;;;7.45;;
9767;SDS011;4923;52.520;13.494;2024-02-26T16:56:19;7.97;;;6.70;;
9767;SDS011;4923;52.520;13.494;2024-02-26T16:59:06;10.48;;;6.97;;